sensor_id;sensor_type;location;lat;lon;timestamp;P1;durP1;ratioP1;P2;durP2;ratioP2
38240;SDS011;24037;49.536;8.500;2023-04-03T00:01:15;2.97;;;1.27;;
38240;SDS011;24037;49.536;8.500;2023-04-03T00:03:42;2.97;;;2.05;;
38240;SDS011;24037;49.536;8.500;2023-04-03T00:06:08;3.17;;;1.45;;
38240;SDS011;24037;49.536;8.500;2023-04-03T00:08:36;2.35;;;1.30;;
38240;SDS011;24037;49.536;8.500;2023-04-03T00:11:03;2.80;;;1.40;;
38240;SDS011;24037;49.536;8.500;2023-04-03T00:13:29;3.33;;;1.58;;
38240;SDS011;24037;49.536;8.500;2023-04-03T00:15:56;3.17;;;1.27;;
38240;SDS011;24037;49.536;8.500;2023-04-03T00:18:22;2.10;;;1.20;;
38240;SDS011;24037;49.536;8.500;2023-04-03T00:20:48;2.95;;;1.75;;
38240;SDS011;24037;49.536;8.500;2023-04-03T00:23:15;1.88;;;1.27;;
38240;SDS011;24037;49.536;8.500;2023-04-03T00:25:42;2.03;;;1.25;;
38240;SDS011;24037;49.536;8.500;2023-04-03T00:28:08;2.25;;;1.08;;
38240;SDS011;24037;49.536;8.500;2023-04-03T00:30:34;2.92;;;1.70;;
38240;SDS011;24037;49.536;8.500;2023-04-03T00:33:00;4.22;;;1.50;;
38240;SDS011;24037;49.536;8.500;2023-04-03T00:35:27;2.42;;;1.48;;
38240;SDS011;24037;49.536;8.500;2023-04-03T00:37:54;4.07;;;1.40;;
38240;SDS011;24037;49.536;8.500;2023-04-03T00:40:21;2.22;;;1.30;;
38240;SDS011;24037;49.536;8.500;2023-04-03T00:42:50;6.38;;;1.40;;
38240;SDS011;24037;49.536;8.500;2023-04-03T00:45:23;3.90;;;1.88;;
38240;SDS011;24037;49.536;8.500;2023-04-03T00:47:52;2.58;;;1.35;;
38240;SDS011;24037;49.536;8.500;2023-04-03T00:50:19;5.15;;;1.90;;
38240;SDS011;24037;49.536;8.500;2023-04-03T00:52:46;3.47;;;1.65;;
38240;SDS011;24037;49.536;8.500;2023-04-03T00:55:14;1.85;;;1.25;;
38240;SDS011;24037;49.536;8.500;2023-04-03T00:57:41;2.92;;;2.03;;
38240;SDS011;24037;49.536;8.500;2023-04-03T01:00:09;5.00;;;1.42;;
38240;SDS011;24037;49.536;8.500;2023-04-03T01:02:38;3.28;;;1.60;;
38240;SDS011;24037;49.536;8.500;2023-04-03T01:05:08;4.55;;;1.33;;
38240;SDS011;24037;49.536;8.500;2023-04-03T01:07:36;2.60;;;1.40;;
38240;SDS011;24037;49.536;8.500;2023-04-03T01:10:04;4.57;;;1.58;;
38240;SDS011;24037;49.536;8.500;2023-04-03T01:12:34;2.53;;;1.67;;
38240;SDS011;24037;49.536;8.500;2023-04-03T01:15:04;9.27;;;5.75;;
38240;SDS011;24037;49.536;8.500;2023-04-03T01:28:10;4.30;;;2.78;;
38240;SDS011;24037;49.536;8.500;2023-04-03T01:30:53;7.35;;;2.30;;
38240;SDS011;24037;49.536;8.500;2023-04-03T01:33:48;4.60;;;2.80;;
38240;SDS011;24037;49.536;8.500;2023-04-03T01:36:16;6.10;;;3.10;;
38240;SDS011;24037;49.536;8.500;2023-04-03T01:38:51;7.43;;;3.33;;
38240;SDS011;24037;49.536;8.500;2023-04-03T01:41:18;9.68;;;6.07;;
38240;SDS011;24037;49.536;8.500;2023-04-03T01:43:47;5.38;;;3.60;;
38240;SDS011;24037;49.536;8.500;2023-04-03T01:46:14;3.30;;;2.33;;
38240;SDS011;24037;49.536;8.500;2023-04-03T01:48:42;5.97;;;2.72;;
38240;SDS011;24037;49.536;8.500;2023-04-03T01:51:09;5.07;;;2.03;;
38240;SDS011;24037;49.536;8.500;2023-04-03T01:53:35;6.38;;;3.30;;
38240;SDS011;24037;49.536;8.500;2023-04-03T01:56:01;9.55;;;5.32;;
38240;SDS011;24037;49.536;8.500;2023-04-03T01:58:29;9.38;;;4.43;;
38240;SDS011;24037;49.536;8.500;2023-04-03T02:00:56;5.20;;;2.78;;
38240;SDS011;24037;49.536;8.500;2023-04-03T02:03:22;4.47;;;2.28;;
38240;SDS011;24037;49.536;8.500;2023-04-03T02:05:49;5.22;;;2.30;;
38240;SDS011;24037;49.536;8.500;2023-04-03T02:08:16;7.30;;;2.90;;
38240;SDS011;24037;49.536;8.500;2023-04-03T02:10:44;8.25;;;4.07;;
38240;SDS011;24037;49.536;8.500;2023-04-03T02:13:12;5.47;;;4.03;;
38240;SDS011;24037;49.536;8.500;2023-04-03T02:15:38;4.68;;;2.85;;
38240;SDS011;24037;49.536;8.500;2023-04-03T02:18:05;5.10;;;3.33;;
38240;SDS011;24037;49.536;8.500;2023-04-03T02:20:32;5.93;;;2.92;;
38240;SDS011;24037;49.536;8.500;2023-04-03T02:22:59;3.80;;;2.40;;
38240;SDS011;24037;49.536;8.500;2023-04-03T02:25:25;5.38;;;2.17;;
38240;SDS011;24037;49.536;8.500;2023-04-03T02:27:51;3.58;;;2.28;;
38240;SDS011;24037;49.536;8.500;2023-04-03T02:30:19;5.25;;;2.70;;
38240;SDS011;24037;49.536;8.500;2023-04-03T02:32:45;4.00;;;2.55;;
38240;SDS011;24037;49.536;8.500;2023-04-03T02:35:11;5.03;;;2.53;;
38240;SDS011;24037;49.536;8.500;2023-04-03T02:37:39;3.65;;;2.58;;
38240;SDS011;24037;49.536;8.500;2023-04-03T02:40:06;4.85;;;2.65;;
38240;SDS011;24037;49.536;8.500;2023-04-03T02:42:34;4.60;;;2.65;;
38240;SDS011;24037;49.536;8.500;2023-04-03T02:45:00;3.55;;;2.75;;
38240;SDS011;24037;49.536;8.500;2023-04-03T02:47:27;9.63;;;3.88;;
38240;SDS011;24037;49.536;8.500;2023-04-03T02:49:53;5.30;;;2.72;;
38240;SDS011;24037;49.536;8.500;2023-04-03T02:52:20;5.10;;;2.85;;
38240;SDS011;24037;49.536;8.500;2023-04-03T02:54:48;4.75;;;2.75;;
38240;SDS011;24037;49.536;8.500;2023-04-03T02:57:14;4.30;;;2.47;;
38240;SDS011;24037;49.536;8.500;2023-04-03T02:59:40;6.30;;;2.88;;
38240;SDS011;24037;49.536;8.500;2023-04-03T03:02:08;5.68;;;2.53;;
38240;SDS011;24037;49.536;8.500;2023-04-03T03:04:34;5.93;;;2.92;;
38240;SDS011;24037;49.536;8.500;2023-04-03T03:07:02;6.72;;;2.35;;
38240;SDS011;24037;49.536;8.500;2023-04-03T03:09:28;6.35;;;3.20;;
38240;SDS011;24037;49.536;8.500;2023-04-03T03:11:55;5.10;;;2.63;;
38240;SDS011;24037;49.536;8.500;2023-04-03T03:14:22;4.82;;;3.25;;
38240;SDS011;24037;49.536;8.500;2023-04-03T03:16:48;4.05;;;2.33;;
38240;SDS011;24037;49.536;8.500;2023-04-03T03:19:15;5.63;;;3.20;;
38240;SDS011;24037;49.536;8.500;2023-04-03T03:21:41;6.35;;;3.58;;
38240;SDS011;24037;49.536;8.500;2023-04-03T03:24:07;4.55;;;2.95;;
38240;SDS011;24037;49.536;8.500;2023-04-03T03:26:37;6.05;;;3.47;;
38240;SDS011;24037;49.536;8.500;2023-04-03T03:29:03;7.22;;;3.13;;
38240;SDS011;24037;49.536;8.500;2023-04-03T03:31:30;7.43;;;3.42;;
38240;SDS011;24037;49.536;8.500;2023-04-03T03:33:56;4.72;;;2.80;;
38240;SDS011;24037;49.536;8.500;2023-04-03T03:36:22;5.90;;;3.72;;
38240;SDS011;24037;49.536;8.500;2023-04-03T03:38:49;6.00;;;3.50;;
38240;SDS011;24037;49.536;8.500;2023-04-03T03:41:15;7.18;;;3.72;;
38240;SDS011;24037;49.536;8.500;2023-04-03T03:43:43;7.20;;;3.13;;
38240;SDS011;24037;49.536;8.500;2023-04-03T03:46:11;8.05;;;3.28;;
38240;SDS011;24037;49.536;8.500;2023-04-03T03:48:37;6.50;;;3.25;;
38240;SDS011;24037;49.536;8.500;2023-04-03T03:51:03;4.50;;;2.75;;
38240;SDS011;24037;49.536;8.500;2023-04-03T03:53:34;6.03;;;3.65;;
38240;SDS011;24037;49.536;8.500;2023-04-03T03:56:05;4.70;;;3.45;;
38240;SDS011;24037;49.536;8.500;2023-04-03T03:58:32;7.03;;;3.47;;
38240;SDS011;24037;49.536;8.500;2023-04-03T04:01:02;6.30;;;3.55;;
38240;SDS011;24037;49.536;8.500;2023-04-03T04:03:32;8.13;;;3.35;;
38240;SDS011;24037;49.536;8.500;2023-04-03T04:05:58;7.15;;;3.47;;
38240;SDS011;24037;49.536;8.500;2023-04-03T04:08:25;5.40;;;3.85;;
38240;SDS011;24037;49.536;8.500;2023-04-03T04:10:51;7.00;;;3.42;;
38240;SDS011;24037;49.536;8.500;2023-04-03T04:13:18;6.50;;;3.33;;
38240;SDS011;24037;49.536;8.500;2023-04-03T04:15:44;7.40;;;3.33;;
38240;SDS011;24037;49.536;8.500;2023-04-03T04:18:11;5.70;;;2.70;;
38240;SDS011;24037;49.536;8.500;2023-04-03T04:20:40;6.03;;;3.17;;
38240;SDS011;24037;49.536;8.500;2023-04-03T04:23:07;6.22;;;3.75;;
38240;SDS011;24037;49.536;8.500;2023-04-03T04:25:34;10.80;;;4.05;;
38240;SDS011;24037;49.536;8.500;2023-04-03T04:28:00;5.35;;;4.20;;
38240;SDS011;24037;49.536;8.500;2023-04-03T04:30:26;7.63;;;3.95;;
38240;SDS011;24037;49.536;8.500;2023-04-03T04:32:55;5.47;;;3.33;;
38240;SDS011;24037;49.536;8.500;2023-04-03T04:35:21;5.88;;;3.30;;
38240;SDS011;24037;49.536;8.500;2023-04-03T04:37:50;6.40;;;3.42;;
38240;SDS011;24037;49.536;8.500;2023-04-03T04:40:16;6.47;;;4.00;;
38240;SDS011;24037;49.536;8.500;2023-04-03T04:42:43;5.55;;;3.60;;
38240;SDS011;24037;49.536;8.500;2023-04-03T04:45:09;6.90;;;4.22;;
38240;SDS011;24037;49.536;8.500;2023-04-03T04:47:38;8.23;;;4.35;;
38240;SDS011;24037;49.536;8.500;2023-04-03T04:50:04;8.15;;;4.45;;
38240;SDS011;24037;49.536;8.500;2023-04-03T04:52:32;6.10;;;3.58;;
38240;SDS011;24037;49.536;8.500;2023-04-03T04:54:58;6.40;;;3.97;;
38240;SDS011;24037;49.536;8.500;2023-04-03T04:57:25;9.30;;;4.15;;
38240;SDS011;24037;49.536;8.500;2023-04-03T04:59:52;6.00;;;3.92;;
38240;SDS011;24037;49.536;8.500;2023-04-03T05:02:18;9.48;;;4.78;;
38240;SDS011;24037;49.536;8.500;2023-04-03T05:04:44;10.00;;;4.35;;
38240;SDS011;24037;49.536;8.500;2023-04-03T05:07:17;7.28;;;4.57;;
38240;SDS011;24037;49.536;8.500;2023-04-03T05:09:43;7.35;;;4.68;;
38240;SDS011;24037;49.536;8.500;2023-04-03T05:12:11;7.45;;;4.55;;
38240;SDS011;24037;49.536;8.500;2023-04-03T05:14:44;7.85;;;4.15;;
38240;SDS011;24037;49.536;8.500;2023-04-03T05:17:10;5.30;;;3.53;;
38240;SDS011;24037;49.536;8.500;2023-04-03T05:19:41;7.65;;;4.35;;
38240;SDS011;24037;49.536;8.500;2023-04-03T05:22:08;6.72;;;4.30;;
38240;SDS011;24037;49.536;8.500;2023-04-03T05:24:35;10.57;;;4.55;;
38240;SDS011;24037;49.536;8.500;2023-04-03T05:27:02;6.25;;;4.70;;
38240;SDS011;24037;49.536;8.500;2023-04-03T05:29:30;6.75;;;4.35;;
38240;SDS011;24037;49.536;8.500;2023-04-03T05:31:58;8.23;;;4.90;;
38240;SDS011;24037;49.536;8.500;2023-04-03T05:34:24;6.28;;;4.43;;
38240;SDS011;24037;49.536;8.500;2023-04-03T05:36:53;9.40;;;5.28;;
38240;SDS011;24037;49.536;8.500;2023-04-03T05:39:19;7.40;;;3.88;;
38240;SDS011;24037;49.536;8.500;2023-04-03T05:41:47;9.43;;;3.90;;
38240;SDS011;24037;49.536;8.500;2023-04-03T05:44:13;6.05;;;4.05;;
38240;SDS011;24037;49.536;8.500;2023-04-03T05:46:41;7.40;;;4.55;;
38240;SDS011;24037;49.536;8.500;2023-04-03T05:49:09;7.78;;;4.45;;
38240;SDS011;24037;49.536;8.500;2023-04-03T05:51:37;3.50;;;2.75;;
38240;SDS011;24037;49.536;8.500;2023-04-03T05:54:16;3.75;;;2.42;;
38240;SDS011;24037;49.536;8.500;2023-04-03T05:56:45;4.82;;;3.00;;
38240;SDS011;24037;49.536;8.500;2023-04-03T05:59:12;4.85;;;2.83;;
38240;SDS011;24037;49.536;8.500;2023-04-03T06:01:38;6.43;;;2.80;;
38240;SDS011;24037;49.536;8.500;2023-04-03T06:04:04;4.78;;;3.78;;
38240;SDS011;24037;49.536;8.500;2023-04-03T06:06:51;5.47;;;3.63;;
38240;SDS011;24037;49.536;8.500;2023-04-03T06:09:19;5.13;;;3.08;;
38240;SDS011;24037;49.536;8.500;2023-04-03T06:11:48;6.97;;;2.55;;
38240;SDS011;24037;49.536;8.500;2023-04-03T06:14:18;5.18;;;2.65;;
38240;SDS011;24037;49.536;8.500;2023-04-03T06:16:45;4.18;;;2.13;;
38240;SDS011;24037;49.536;8.500;2023-04-03T06:19:11;7.68;;;2.58;;
38240;SDS011;24037;49.536;8.500;2023-04-03T06:21:42;5.30;;;2.88;;
38240;SDS011;24037;49.536;8.500;2023-04-03T06:24:09;4.35;;;2.63;;
38240;SDS011;24037;49.536;8.500;2023-04-03T06:26:37;6.18;;;2.13;;
38240;SDS011;24037;49.536;8.500;2023-04-03T06:29:04;6.40;;;2.00;;
38240;SDS011;24037;49.536;8.500;2023-04-03T06:31:30;4.22;;;2.05;;
38240;SDS011;24037;49.536;8.500;2023-04-03T06:33:56;4.28;;;2.72;;
38240;SDS011;24037;49.536;8.500;2023-04-03T06:36:22;3.67;;;1.73;;
38240;SDS011;24037;49.536;8.500;2023-04-03T06:38:48;3.50;;;1.70;;
38240;SDS011;24037;49.536;8.500;2023-04-03T06:41:15;5.45;;;2.00;;
38240;SDS011;24037;49.536;8.500;2023-04-03T06:43:42;4.00;;;1.73;;
38240;SDS011;24037;49.536;8.500;2023-04-03T06:46:15;3.80;;;1.60;;
38240;SDS011;24037;49.536;8.500;2023-04-03T06:51:18;4.40;;;2.08;;
38240;SDS011;24037;49.536;8.500;2023-04-03T06:53:45;3.30;;;1.55;;
38240;SDS011;24037;49.536;8.500;2023-04-03T06:56:13;3.17;;;1.80;;
38240;SDS011;24037;49.536;8.500;2023-04-03T06:58:39;3.58;;;1.35;;
38240;SDS011;24037;49.536;8.500;2023-04-03T07:01:06;5.88;;;2.17;;
38240;SDS011;24037;49.536;8.500;2023-04-03T07:03:32;4.00;;;1.80;;
38240;SDS011;24037;49.536;8.500;2023-04-03T07:05:58;3.55;;;1.58;;
38240;SDS011;24037;49.536;8.500;2023-04-03T07:08:24;3.70;;;1.92;;
38240;SDS011;24037;49.536;8.500;2023-04-03T07:10:51;4.20;;;1.67;;
38240;SDS011;24037;49.536;8.500;2023-04-03T07:13:17;4.55;;;1.52;;
38240;SDS011;24037;49.536;8.500;2023-04-03T07:15:43;5.38;;;1.80;;
38240;SDS011;24037;49.536;8.500;2023-04-03T07:18:10;3.28;;;1.58;;
38240;SDS011;24037;49.536;8.500;2023-04-03T07:20:36;3.47;;;1.88;;
38240;SDS011;24037;49.536;8.500;2023-04-03T07:23:04;3.83;;;1.90;;
38240;SDS011;24037;49.536;8.500;2023-04-03T07:25:30;5.18;;;1.70;;
38240;SDS011;24037;49.536;8.500;2023-04-03T07:27:57;5.00;;;2.10;;
38240;SDS011;24037;49.536;8.500;2023-04-03T07:30:23;2.65;;;1.75;;
38240;SDS011;24037;49.536;8.500;2023-04-03T07:32:49;6.32;;;1.65;;
38240;SDS011;24037;49.536;8.500;2023-04-03T07:35:16;3.70;;;1.40;;
38240;SDS011;24037;49.536;8.500;2023-04-03T07:37:43;3.08;;;1.70;;
38240;SDS011;24037;49.536;8.500;2023-04-03T07:40:09;3.95;;;1.73;;
38240;SDS011;24037;49.536;8.500;2023-04-03T07:42:36;3.55;;;1.33;;
38240;SDS011;24037;49.536;8.500;2023-04-03T07:45:03;4.82;;;1.73;;
38240;SDS011;24037;49.536;8.500;2023-04-03T07:47:30;5.13;;;1.90;;
38240;SDS011;24037;49.536;8.500;2023-04-03T07:49:57;2.88;;;1.00;;
38240;SDS011;24037;49.536;8.500;2023-04-03T07:52:23;5.72;;;1.70;;
38240;SDS011;24037;49.536;8.500;2023-04-03T07:54:50;4.75;;;1.20;;
38240;SDS011;24037;49.536;8.500;2023-04-03T07:57:17;4.45;;;1.48;;
38240;SDS011;24037;49.536;8.500;2023-04-03T07:59:43;7.15;;;2.92;;
38240;SDS011;24037;49.536;8.500;2023-04-03T08:02:09;2.35;;;1.08;;
38240;SDS011;24037;49.536;8.500;2023-04-03T08:04:36;4.53;;;1.65;;
38240;SDS011;24037;49.536;8.500;2023-04-03T08:07:02;6.78;;;1.20;;
38240;SDS011;24037;49.536;8.500;2023-04-03T08:09:28;4.32;;;1.52;;
38240;SDS011;24037;49.536;8.500;2023-04-03T08:11:55;3.22;;;1.17;;
38240;SDS011;24037;49.536;8.500;2023-04-03T08:14:21;7.10;;;1.25;;
38240;SDS011;24037;49.536;8.500;2023-04-03T08:16:47;2.53;;;1.25;;
38240;SDS011;24037;49.536;8.500;2023-04-03T08:19:14;2.55;;;0.90;;
38240;SDS011;24037;49.536;8.500;2023-04-03T08:21:43;3.65;;;1.02;;
38240;SDS011;24037;49.536;8.500;2023-04-03T08:24:09;6.28;;;1.42;;
38240;SDS011;24037;49.536;8.500;2023-04-03T08:26:35;2.42;;;0.75;;
38240;SDS011;24037;49.536;8.500;2023-04-03T08:29:02;2.78;;;0.98;;
38240;SDS011;24037;49.536;8.500;2023-04-03T08:31:28;4.30;;;1.35;;
38240;SDS011;24037;49.536;8.500;2023-04-03T08:33:56;5.97;;;1.30;;
38240;SDS011;24037;49.536;8.500;2023-04-03T08:36:27;10.07;;;3.05;;
38240;SDS011;24037;49.536;8.500;2023-04-03T08:38:54;2.03;;;0.70;;
38240;SDS011;24037;49.536;8.500;2023-04-03T08:50:00;3.00;;;0.80;;
38240;SDS011;24037;49.536;8.500;2023-04-03T08:55:07;3.20;;;0.80;;
38240;SDS011;24037;49.536;8.500;2023-04-03T08:57:43;2.55;;;1.00;;
38240;SDS011;24037;49.536;8.500;2023-04-03T09:02:44;1.70;;;0.70;;
38240;SDS011;24037;49.536;8.500;2023-04-03T09:07:46;3.25;;;0.70;;
38240;SDS011;24037;49.536;8.500;2023-04-03T09:10:19;2.58;;;0.88;;
38240;SDS011;24037;49.536;8.500;2023-04-03T09:12:56;3.22;;;0.95;;
38240;SDS011;24037;49.536;8.500;2023-04-03T09:15:30;5.93;;;1.13;;
38240;SDS011;24037;49.536;8.500;2023-04-03T09:18:02;2.05;;;0.80;;
38240;SDS011;24037;49.536;8.500;2023-04-03T09:20:46;1.42;;;0.55;;
38240;SDS011;24037;49.536;8.500;2023-04-03T09:26:06;4.70;;;1.33;;
38240;SDS011;24037;49.536;8.500;2023-04-03T09:28:40;3.92;;;0.93;;
38240;SDS011;24037;49.536;8.500;2023-04-03T09:31:23;1.70;;;0.70;;
38240;SDS011;24037;49.536;8.500;2023-04-03T09:33:56;1.80;;;0.80;;
38240;SDS011;24037;49.536;8.500;2023-04-03T09:36:44;5.75;;;1.00;;
38240;SDS011;24037;49.536;8.500;2023-04-03T09:39:23;2.58;;;0.73;;
38240;SDS011;24037;49.536;8.500;2023-04-03T09:41:55;4.07;;;1.00;;
38240;SDS011;24037;49.536;8.500;2023-04-03T09:44:36;3.15;;;0.77;;
38240;SDS011;24037;49.536;8.500;2023-04-03T09:47:19;2.17;;;0.68;;
38240;SDS011;24037;49.536;8.500;2023-04-03T09:49:48;4.45;;;0.90;;
38240;SDS011;24037;49.536;8.500;2023-04-03T09:52:19;2.25;;;0.82;;
38240;SDS011;24037;49.536;8.500;2023-04-03T09:54:48;2.42;;;0.90;;
38240;SDS011;24037;49.536;8.500;2023-04-03T09:57:14;2.22;;;0.50;;
38240;SDS011;24037;49.536;8.500;2023-04-03T09:59:56;1.05;;;0.40;;
38240;SDS011;24037;49.536;8.500;2023-04-03T10:02:30;2.40;;;0.70;;
38240;SDS011;24037;49.536;8.500;2023-04-03T10:05:00;2.45;;;0.70;;
38240;SDS011;24037;49.536;8.500;2023-04-03T10:07:28;5.65;;;0.68;;
38240;SDS011;24037;49.536;8.500;2023-04-03T10:10:15;1.70;;;0.70;;
38240;SDS011;24037;49.536;8.500;2023-04-03T10:12:48;2.78;;;1.55;;
38240;SDS011;24037;49.536;8.500;2023-04-03T10:15:15;1.38;;;0.60;;
38240;SDS011;24037;49.536;8.500;2023-04-03T10:17:54;1.40;;;0.68;;
38240;SDS011;24037;49.536;8.500;2023-04-03T10:20:31;3.10;;;0.70;;
38240;SDS011;24037;49.536;8.500;2023-04-03T10:31:15;4.72;;;1.50;;
38240;SDS011;24037;49.536;8.500;2023-04-03T10:34:16;4.10;;;0.80;;
38240;SDS011;24037;49.536;8.500;2023-04-03T10:37:10;2.58;;;0.88;;
38240;SDS011;24037;49.536;8.500;2023-04-03T10:45:27;2.35;;;0.90;;
38240;SDS011;24037;49.536;8.500;2023-04-03T10:50:48;1.63;;;0.60;;
38240;SDS011;24037;49.536;8.500;2023-04-03T10:53:31;3.78;;;0.77;;
38240;SDS011;24037;49.536;8.500;2023-04-03T11:01:59;2.67;;;0.65;;
38240;SDS011;24037;49.536;8.500;2023-04-03T11:04:31;3.03;;;0.70;;
38240;SDS011;24037;49.536;8.500;2023-04-03T11:07:03;2.50;;;1.00;;
38240;SDS011;24037;49.536;8.500;2023-04-03T11:09:37;2.15;;;1.02;;
38240;SDS011;24037;49.536;8.500;2023-04-03T11:12:11;2.85;;;0.70;;
38240;SDS011;24037;49.536;8.500;2023-04-03T11:14:42;2.33;;;1.23;;
38240;SDS011;24037;49.536;8.500;2023-04-03T11:17:19;1.77;;;0.70;;
38240;SDS011;24037;49.536;8.500;2023-04-03T11:20:18;1.40;;;0.70;;
38240;SDS011;24037;49.536;8.500;2023-04-03T11:23:12;3.53;;;0.90;;
38240;SDS011;24037;49.536;8.500;2023-04-03T11:25:47;3.50;;;0.70;;
38240;SDS011;24037;49.536;8.500;2023-04-03T11:28:18;3.10;;;1.00;;
38240;SDS011;24037;49.536;8.500;2023-04-03T11:30:49;1.92;;;0.85;;
38240;SDS011;24037;49.536;8.500;2023-04-03T11:33:58;2.53;;;0.90;;
38240;SDS011;24037;49.536;8.500;2023-04-03T11:36:35;1.40;;;0.60;;
38240;SDS011;24037;49.536;8.500;2023-04-03T11:39:25;2.50;;;1.20;;
38240;SDS011;24037;49.536;8.500;2023-04-03T11:41:54;3.33;;;0.93;;
38240;SDS011;24037;49.536;8.500;2023-04-03T11:44:34;2.90;;;0.75;;
38240;SDS011;24037;49.536;8.500;2023-04-03T11:47:03;1.08;;;0.63;;
38240;SDS011;24037;49.536;8.500;2023-04-03T11:50:07;3.38;;;1.05;;
38240;SDS011;24037;49.536;8.500;2023-04-03T12:19:27;1.38;;;0.65;;
38240;SDS011;24037;49.536;8.500;2023-04-03T12:24:25;5.68;;;1.30;;
38240;SDS011;24037;49.536;8.500;2023-04-03T12:43:45;3.78;;;1.20;;
38240;SDS011;24037;49.536;8.500;2023-04-03T12:46:21;6.03;;;1.20;;
38240;SDS011;24037;49.536;8.500;2023-04-03T12:48:51;3.80;;;1.25;;
38240;SDS011;24037;49.536;8.500;2023-04-03T12:56:38;12.05;;;5.75;;
38240;SDS011;24037;49.536;8.500;2023-04-03T13:02:00;5.35;;;2.35;;
38240;SDS011;24037;49.536;8.500;2023-04-03T13:04:28;29.48;;;14.15;;
38240;SDS011;24037;49.536;8.500;2023-04-03T13:06:56;3.05;;;1.45;;
38240;SDS011;24037;49.536;8.500;2023-04-03T13:09:24;2.60;;;1.67;;
38240;SDS011;24037;49.536;8.500;2023-04-03T13:11:57;4.53;;;2.25;;
38240;SDS011;24037;49.536;8.500;2023-04-03T13:14:29;2.72;;;1.67;;
38240;SDS011;24037;49.536;8.500;2023-04-03T13:17:18;4.93;;;1.73;;
38240;SDS011;24037;49.536;8.500;2023-04-03T13:19:43;3.92;;;1.52;;
38240;SDS011;24037;49.536;8.500;2023-04-03T13:25:05;2.30;;;1.10;;
38240;SDS011;24037;49.536;8.500;2023-04-03T13:27:35;2.60;;;0.80;;
38240;SDS011;24037;49.536;8.500;2023-04-03T13:30:02;3.55;;;0.90;;
38240;SDS011;24037;49.536;8.500;2023-04-03T13:32:31;3.28;;;1.13;;
38240;SDS011;24037;49.536;8.500;2023-04-03T13:34:58;5.75;;;1.80;;
38240;SDS011;24037;49.536;8.500;2023-04-03T13:37:26;2.13;;;1.58;;
38240;SDS011;24037;49.536;8.500;2023-04-03T13:42:35;3.65;;;1.98;;
38240;SDS011;24037;49.536;8.500;2023-04-03T13:45:23;2.58;;;1.15;;
38240;SDS011;24037;49.536;8.500;2023-04-03T13:48:06;4.17;;;1.40;;
38240;SDS011;24037;49.536;8.500;2023-04-03T13:50:50;3.20;;;1.02;;
38240;SDS011;24037;49.536;8.500;2023-04-03T13:53:17;2.75;;;2.15;;
38240;SDS011;24037;49.536;8.500;2023-04-03T13:55:54;5.72;;;0.98;;
38240;SDS011;24037;49.536;8.500;2023-04-03T13:58:30;2.60;;;1.10;;
38240;SDS011;24037;49.536;8.500;2023-04-03T14:06:12;5.63;;;1.20;;
38240;SDS011;24037;49.536;8.500;2023-04-03T14:08:42;1.27;;;0.82;;
38240;SDS011;24037;49.536;8.500;2023-04-03T14:11:14;2.90;;;1.00;;
38240;SDS011;24037;49.536;8.500;2023-04-03T14:13:46;1.98;;;0.75;;
38240;SDS011;24037;49.536;8.500;2023-04-03T14:16:14;3.17;;;1.08;;
38240;SDS011;24037;49.536;8.500;2023-04-03T14:18:43;3.65;;;1.20;;
38240;SDS011;24037;49.536;8.500;2023-04-03T14:21:13;2.10;;;0.80;;
38240;SDS011;24037;49.536;8.500;2023-04-03T14:26:14;2.35;;;1.13;;
38240;SDS011;24037;49.536;8.500;2023-04-03T14:28:43;3.47;;;1.73;;
38240;SDS011;24037;49.536;8.500;2023-04-03T14:31:11;3.03;;;1.30;;
38240;SDS011;24037;49.536;8.500;2023-04-03T14:33:39;1.92;;;0.90;;
38240;SDS011;24037;49.536;8.500;2023-04-03T14:36:11;1.00;;;0.70;;
38240;SDS011;24037;49.536;8.500;2023-04-03T14:38:39;1.58;;;0.90;;
38240;SDS011;24037;49.536;8.500;2023-04-03T14:41:07;2.28;;;1.10;;
38240;SDS011;24037;49.536;8.500;2023-04-03T14:43:33;1.50;;;0.80;;
38240;SDS011;24037;49.536;8.500;2023-04-03T14:45:59;6.45;;;1.10;;
38240;SDS011;24037;49.536;8.500;2023-04-03T14:48:26;3.63;;;0.70;;
38240;SDS011;24037;49.536;8.500;2023-04-03T14:50:54;2.90;;;1.30;;
38240;SDS011;24037;49.536;8.500;2023-04-03T14:53:20;3.72;;;1.35;;
38240;SDS011;24037;49.536;8.500;2023-04-03T14:55:51;3.08;;;1.48;;
38240;SDS011;24037;49.536;8.500;2023-04-03T14:58:18;2.97;;;1.50;;
38240;SDS011;24037;49.536;8.500;2023-04-03T15:00:46;4.35;;;1.95;;
38240;SDS011;24037;49.536;8.500;2023-04-03T15:03:13;8.45;;;2.72;;
38240;SDS011;24037;49.536;8.500;2023-04-03T15:05:42;7.78;;;3.70;;
38240;SDS011;24037;49.536;8.500;2023-04-03T15:08:20;1.75;;;1.08;;
38240;SDS011;24037;49.536;8.500;2023-04-03T15:10:49;3.60;;;1.52;;
38240;SDS011;24037;49.536;8.500;2023-04-03T15:13:18;1.98;;;0.98;;
38240;SDS011;24037;49.536;8.500;2023-04-03T15:15:45;4.68;;;1.40;;
38240;SDS011;24037;49.536;8.500;2023-04-03T15:18:19;1.75;;;0.80;;
38240;SDS011;24037;49.536;8.500;2023-04-03T15:20:49;1.25;;;0.50;;
38240;SDS011;24037;49.536;8.500;2023-04-03T15:23:15;4.78;;;1.33;;
38240;SDS011;24037;49.536;8.500;2023-04-03T15:25:43;2.85;;;0.80;;
38240;SDS011;24037;49.536;8.500;2023-04-03T15:28:45;4.47;;;0.68;;
38240;SDS011;24037;49.536;8.500;2023-04-03T15:31:07;2.72;;;1.30;;
38240;SDS011;24037;49.536;8.500;2023-04-03T15:33:34;1.63;;;0.70;;
38240;SDS011;24037;49.536;8.500;2023-04-03T15:36:01;2.47;;;0.63;;
38240;SDS011;24037;49.536;8.500;2023-04-03T15:38:28;2.20;;;0.63;;
38240;SDS011;24037;49.536;8.500;2023-04-03T15:40:55;6.57;;;1.48;;
38240;SDS011;24037;49.536;8.500;2023-04-03T15:43:29;6.43;;;1.27;;
38240;SDS011;24037;49.536;8.500;2023-04-03T15:45:56;3.30;;;1.20;;
38240;SDS011;24037;49.536;8.500;2023-04-03T15:48:24;2.97;;;1.13;;
38240;SDS011;24037;49.536;8.500;2023-04-03T15:50:53;4.70;;;1.23;;
38240;SDS011;24037;49.536;8.500;2023-04-03T15:53:19;5.22;;;2.80;;
38240;SDS011;24037;49.536;8.500;2023-04-03T15:55:45;1.27;;;0.55;;
38240;SDS011;24037;49.536;8.500;2023-04-03T15:58:12;1.85;;;0.77;;
38240;SDS011;24037;49.536;8.500;2023-04-03T16:00:38;2.03;;;0.70;;
38240;SDS011;24037;49.536;8.500;2023-04-03T16:03:11;1.98;;;0.80;;
38240;SDS011;24037;49.536;8.500;2023-04-03T16:05:40;1.00;;;0.60;;
38240;SDS011;24037;49.536;8.500;2023-04-03T16:08:06;2.20;;;0.80;;
38240;SDS011;24037;49.536;8.500;2023-04-03T16:10:34;2.78;;;0.85;;
38240;SDS011;24037;49.536;8.500;2023-04-03T16:13:01;3.25;;;0.75;;
38240;SDS011;24037;49.536;8.500;2023-04-03T16:15:27;2.15;;;0.70;;
38240;SDS011;24037;49.536;8.500;2023-04-03T16:17:54;3.67;;;0.75;;
38240;SDS011;24037;49.536;8.500;2023-04-03T16:20:20;1.63;;;0.80;;
38240;SDS011;24037;49.536;8.500;2023-04-03T16:22:47;3.97;;;1.15;;
38240;SDS011;24037;49.536;8.500;2023-04-03T16:25:13;4.57;;;1.98;;
38240;SDS011;24037;49.536;8.500;2023-04-03T16:27:39;5.32;;;2.22;;
38240;SDS011;24037;49.536;8.500;2023-04-03T16:30:06;4.47;;;1.75;;
38240;SDS011;24037;49.536;8.500;2023-04-03T16:32:33;2.60;;;1.55;;
38240;SDS011;24037;49.536;8.500;2023-04-03T16:34:59;3.75;;;1.65;;
38240;SDS011;24037;49.536;8.500;2023-04-03T16:37:26;2.15;;;0.95;;
38240;SDS011;24037;49.536;8.500;2023-04-03T16:39:52;2.85;;;0.88;;
38240;SDS011;24037;49.536;8.500;2023-04-03T16:42:18;4.63;;;1.70;;
38240;SDS011;24037;49.536;8.500;2023-04-03T16:44:44;2.72;;;1.00;;
38240;SDS011;24037;49.536;8.500;2023-04-03T16:47:10;2.25;;;0.80;;
38240;SDS011;24037;49.536;8.500;2023-04-03T16:49:39;1.20;;;0.60;;
38240;SDS011;24037;49.536;8.500;2023-04-03T16:52:05;1.65;;;0.57;;
38240;SDS011;24037;49.536;8.500;2023-04-03T16:54:31;2.90;;;0.80;;
38240;SDS011;24037;49.536;8.500;2023-04-03T16:56:58;2.08;;;1.25;;
38240;SDS011;24037;49.536;8.500;2023-04-03T16:59:24;3.40;;;0.68;;
38240;SDS011;24037;49.536;8.500;2023-04-03T17:01:50;3.90;;;0.60;;
38240;SDS011;24037;49.536;8.500;2023-04-03T17:04:16;3.15;;;0.80;;